Time;durP1;ratioP1;P1;durP2;ratioP2;P2;SDS_P1;SDS_P2;PMS_P1;PMS_P2;Temp;Humidity;BMP_temperature;BMP_pressure;BME280_temperature;BME280_humidity;BME280_pressure;Samples;Min_cycle;Max_cycle;Signal;HPM_P1;HPM_P2
2023/06/05 00:01:44;;;;;;;12.57;7.28;;;;;;;12.31;100.00;102214.19;5072198;28;20029;-77
2023/06/05 00:04:09;;;;;;;14.70;7.93;;;;;;;12.23;100.00;102219.03;5061599;28;20040;-77
2023/06/05 00:06:37;;;;;;;13.75;7.60;;;;;;;12.13;100.00;102218.63;5035779;28;20036;-76
2023/06/05 00:09:12;;;;;;;12.90;7.72;;;;;;;12.23;100.00;102224.38;5065035;28;20028;-77
2023/06/05 00:11:40;;;;;;;14.77;7.63;;;;;;;12.30;100.00;102209.75;5043300;28;20037;-76
2023/06/05 00:14:08;;;;;;;12.75;8.43;;;;;;;12.13;100.00;102224.81;5071248;28;20123;-77
2023/06/05 00:16:34;;;;;;;13.98;7.93;;;;;;;12.05;100.00;102218.09;5028942;28;20036;-76
2023/06/05 00:19:00;;;;;;;13.93;7.97;;;;;;;12.12;100.00;102220.41;5060203;28;20052;-76
2023/06/05 00:21:26;;;;;;;15.60;7.68;;;;;;;12.01;100.00;102217.41;5064867;28;20037;-77
2023/06/05 00:23:52;;;;;;;11.85;8.57;;;;;;;12.09;100.00;102219.69;5060805;28;20121;-77
2023/06/05 00:26:17;;;;;;;12.93;8.10;;;;;;;11.90;100.00;102220.59;5070740;28;20083;-77
2023/06/05 00:28:43;;;;;;;17.23;8.35;;;;;;;11.97;100.00;102217.63;5059290;28;20037;-76
2023/06/05 00:31:17;;;;;;;12.70;8.07;;;;;;;12.02;100.00;102215.59;5062604;28;20212;-75
2023/06/05 00:33:42;;;;;;;10.85;7.85;;;;;;;11.74;100.00;102208.81;5061980;28;20043;-75
2023/06/05 00:36:11;;;;;;;13.25;7.88;;;;;;;11.86;100.00;102215.44;5055899;28;20028;-75
2023/06/05 00:38:37;;;;;;;11.40;7.75;;;;;;;11.71;100.00;102213.47;5061636;28;20559;-76
2023/06/05 00:41:04;;;;;;;16.10;10.20;;;;;;;11.81;100.00;102214.75;5043646;28;20040;-76
2023/06/05 00:43:30;;;;;;;11.27;7.63;;;;;;;11.83;100.00;102212.91;5059805;28;20229;-76
2023/06/05 00:46:04;;;;;;;15.98;8.52;;;;;;;11.51;100.00;102217.03;5047953;28;20670;-77
2023/06/05 00:48:32;;;;;;;14.40;7.90;;;;;;;11.75;100.00;102209.72;5045694;28;20037;-75
2023/06/05 00:50:59;;;;;;;15.25;8.57;;;;;;;11.67;100.00;102204.69;5054334;28;20033;-75
2023/06/05 00:53:26;;;;;;;15.90;8.82;;;;;;;11.70;100.00;102217.94;5054952;28;20438;-75
2023/06/05 00:55:53;;;;;;;16.08;8.70;;;;;;;11.66;100.00;102217.19;5048139;28;20068;-76
2023/06/05 00:58:19;;;;;;;14.45;8.95;;;;;;;11.52;100.00;102211.63;5065474;28;20274;-76
2023/06/05 01:00:45;;;;;;;14.00;8.45;;;;;;;11.44;100.00;102215.56;5056804;28;20044;-75
2023/06/05 01:03:12;;;;;;;16.98;9.48;;;;;;;11.40;100.00;102218.38;5053466;28;20041;-75
2023/06/05 01:05:39;;;;;;;13.75;9.07;;;;;;;11.34;100.00;102215.97;5066528;28;20037;-74
2023/06/05 01:08:12;;;;;;;16.40;9.65;;;;;;;11.40;100.00;102217.53;5040491;28;20041;-75
2023/06/05 01:10:41;;;;;;;12.48;9.40;;;;;;;11.47;100.00;102224.31;5055205;28;20033;-75
2023/06/05 01:13:18;;;;;;;15.15;9.55;;;;;;;11.51;100.00;102217.91;5057006;28;20033;-75
2023/06/05 01:15:44;;;;;;;13.50;10.60;;;;;;;11.53;100.00;102205.31;5043858;28;20058;-75
2023/06/05 01:18:11;;;;;;;16.25;10.27;;;;;;;11.38;100.00;102214.91;5055514;28;20068;-75
2023/06/05 01:20:41;;;;;;;20.33;9.07;;;;;;;11.22;100.00;102210.31;5074491;28;20029;-75
2023/06/05 01:23:10;;;;;;;14.02;9.23;;;;;;;11.31;100.00;102215.25;5055063;28;20108;-75
2023/06/05 01:25:37;;;;;;;17.92;10.25;;;;;;;11.04;100.00;102211.97;5062817;28;20048;-76
2023/06/05 01:28:26;;;;;;;20.02;10.75;;;;;;;11.15;100.00;102209.72;5044783;28;20044;-76
2023/06/05 01:31:05;;;;;;;17.85;10.85;;;;;;;11.34;100.00;102215.09;5041765;28;20029;-77
2023/06/05 01:33:42;;;;;;;21.45;10.48;;;;;;;10.99;100.00;102205.97;5052398;28;20040;-74
2023/06/05 01:36:11;;;;;;;18.15;10.50;;;;;;;11.30;100.00;102213.53;5056640;28;20029;-76
2023/06/05 01:38:41;;;;;;;20.13;11.35;;;;;;;11.24;100.00;102217.31;5044082;28;21097;-76
2023/06/05 01:41:10;;;;;;;19.05;10.52;;;;;;;11.19;100.00;102208.63;5067860;28;20969;-76
2023/06/05 01:43:39;;;;;;;16.95;10.30;;;;;;;11.11;100.00;102208.97;5039148;28;20108;-77
2023/06/05 01:46:08;;;;;;;18.33;11.00;;;;;;;11.18;100.00;102211.38;5059748;28;20432;-77
2023/06/05 01:48:38;;;;;;;17.65;10.10;;;;;;;10.97;100.00;102215.84;5019169;28;20025;-78
2023/06/05 01:51:10;;;;;;;22.35;11.35;;;;;;;11.01;100.00;102206.78;5036256;28;20041;-75
2023/06/05 01:53:37;;;;;;;19.65;11.60;;;;;;;10.97;100.00;102210.50;5039086;28;20493;-75
2023/06/05 01:56:04;;;;;;;19.83;11.48;;;;;;;11.08;100.00;102201.09;5035315;28;20068;-75
2023/06/05 01:58:30;;;;;;;21.50;11.40;;;;;;;10.86;100.00;102208.31;5041611;28;20049;-77
2023/06/05 02:00:56;;;;;;;21.05;10.65;;;;;;;11.11;100.00;102206.31;5043328;28;20165;-77
2023/06/05 02:03:23;;;;;;;19.02;11.32;;;;;;;10.88;100.00;102201.97;5036091;28;20056;-77
2023/06/05 02:05:49;;;;;;;24.92;11.65;;;;;;;10.99;100.00;102200.63;5065417;28;20118;-77
2023/06/05 02:08:19;;;;;;;23.65;12.68;;;;;;;10.70;100.00;102200.09;5060820;28;20104;-77
2023/06/05 02:10:48;;;;;;;20.73;12.50;;;;;;;10.78;100.00;102197.94;5034059;28;20048;-76
2023/06/05 02:13:15;;;;;;;17.73;12.57;;;;;;;10.81;100.00;102189.81;5062417;28;20093;-77
2023/06/05 02:15:41;;;;;;;25.38;11.93;;;;;;;10.80;100.00;102187.22;5037485;28;20110;-74
2023/06/05 02:18:10;;;;;;;21.80;13.02;;;;;;;10.73;100.00;102201.75;5048677;28;20047;-75
2023/06/05 02:20:37;;;;;;;19.67;11.32;;;;;;;10.83;100.00;102192.41;5062853;28;20081;-74
2023/06/05 02:23:04;;;;;;;20.40;11.90;;;;;;;10.88;100.00;102195.75;5054582;28;20040;-75
2023/06/05 02:25:30;;;;;;;20.40;12.50;;;;;;;10.76;100.00;102202.50;5052946;28;20501;-77
2023/06/05 02:27:56;;;;;;;25.85;13.23;;;;;;;10.53;100.00;102205.25;5056112;28;20148;-78
2023/06/05 02:30:22;;;;;;;19.05;12.32;;;;;;;10.49;100.00;102201.84;5063689;28;21036;-77
2023/06/05 02:32:48;;;;;;;21.52;12.38;;;;;;;10.68;100.00;102199.28;5055223;28;20039;-74
2023/06/05 02:35:15;;;;;;;21.58;12.95;;;;;;;10.46;100.00;102201.09;5054290;28;20028;-76
2023/06/05 02:37:44;;;;;;;24.15;14.30;;;;;;;10.41;100.00;102195.97;5047769;28;20079;-77
2023/06/05 02:40:12;;;;;;;25.90;12.25;;;;;;;10.55;100.00;102196.25;5052596;28;20144;-74
2023/06/05 02:42:40;;;;;;;23.25;14.30;;;;;;;10.50;100.00;102198.25;5041846;28;20041;-77
2023/06/05 02:45:10;;;;;;;28.23;13.00;;;;;;;10.48;100.00;102201.91;5054628;28;20040;-75
2023/06/05 02:47:37;;;;;;;30.67;12.98;;;;;;;10.40;100.00;102191.56;5044541;28;20039;-78
2023/06/05 02:50:10;;;;;;;24.38;14.27;;;;;;;10.42;100.00;102188.81;5048289;28;20153;-77
2023/06/05 02:52:40;;;;;;;21.45;13.35;;;;;;;10.13;100.00;102183.69;5053793;28;20032;-77
2023/06/05 02:55:17;;;;;;;27.88;13.27;;;;;;;10.19;100.00;102189.72;5053788;28;20029;-77
2023/06/05 02:57:44;;;;;;;23.70;13.57;;;;;;;10.24;100.00;102186.00;5046662;28;20044;-76
2023/06/05 03:00:16;;;;;;;23.23;13.95;;;;;;;10.22;100.00;102173.59;5045399;28;20457;-77
2023/06/05 03:02:48;;;;;;;25.98;13.35;;;;;;;10.39;100.00;102176.47;5051134;28;20033;-74
2023/06/05 03:05:27;;;;;;;25.55;13.45;;;;;;;10.30;100.00;102176.88;5034459;28;20942;-78
2023/06/05 03:07:58;;;;;;;20.13;12.55;;;;;;;10.30;100.00;102174.22;5024687;28;20037;-77
2023/06/05 03:10:23;;;;;;;30.85;13.98;;;;;;;10.17;100.00;102175.59;5065369;28;20979;-76
2023/06/05 03:12:50;;;;;;;22.40;13.38;;;;;;;10.26;100.00;102173.44;5048007;28;20152;-76
2023/06/05 03:15:17;;;;;;;24.27;13.65;;;;;;;10.13;100.00;102173.03;5056128;28;20090;-77
2023/06/05 03:17:43;;;;;;;23.95;14.25;;;;;;;10.18;100.00;102174.66;5049279;28;20045;-77
2023/06/05 03:20:10;;;;;;;26.38;14.45;;;;;;;10.17;100.00;102172.91;5046051;28;20078;-77
2023/06/05 03:22:38;;;;;;;26.55;14.60;;;;;;;10.23;100.00;102170.00;5053945;28;20052;-75
2023/06/05 03:25:10;;;;;;;26.85;15.45;;;;;;;10.07;100.00;102170.63;5043929;28;20145;-76
2023/06/05 03:27:41;;;;;;;25.50;14.38;;;;;;;10.16;100.00;102173.84;5035231;28;20033;-76
2023/06/05 03:30:11;;;;;;;24.80;14.27;;;;;;;10.11;100.00;102182.03;5045996;28;20231;-75
2023/06/05 03:32:42;;;;;;;26.25;13.50;;;;;;;10.28;100.00;102179.56;5052138;28;20588;-76
2023/06/05 03:35:10;;;;;;;27.42;14.55;;;;;;;10.26;100.00;102170.78;5062099;28;20029;-76
2023/06/05 03:37:40;;;;;;;29.05;14.07;;;;;;;10.18;100.00;102169.31;5033222;28;20049;-76
2023/06/05 03:40:10;;;;;;;26.08;14.23;;;;;;;10.30;100.00;102175.06;5019317;28;20069;-75
2023/06/05 03:42:37;;;;;;;24.07;14.27;;;;;;;10.29;100.00;102165.34;5028850;28;20140;-75
2023/06/05 03:45:06;;;;;;;29.10;13.82;;;;;;;10.58;100.00;102169.44;5037751;28;21048;-75
2023/06/05 03:47:37;;;;;;;25.38;14.82;;;;;;;10.68;100.00;102158.38;5005421;28;20034;-75
2023/06/05 03:50:11;;;;;;;28.27;13.85;;;;;;;10.61;100.00;102163.13;5030394;28;20140;-76
2023/06/05 03:52:40;;;;;;;28.17;15.40;;;;;;;10.71;100.00;102160.94;5024964;28;20111;-75
2023/06/05 03:55:10;;;;;;;25.88;14.52;;;;;;;11.31;100.00;102152.03;5014192;28;20917;-75
2023/06/05 03:57:41;;;;;;;22.52;14.45;;;;;;;11.32;100.00;102150.22;5028074;28;20358;-74
2023/06/05 04:00:10;;;;;;;21.85;13.80;;;;;;;11.64;100.00;102156.75;5023490;28;20144;-75
2023/06/05 04:02:40;;;;;;;23.77;14.25;;;;;;;11.67;100.00;102154.78;5008864;28;20044;-75
2023/06/05 04:05:12;;;;;;;21.27;13.90;;;;;;;11.64;100.00;102154.06;5021173;28;20038;-75
2023/06/05 04:07:40;;;;;;;22.20;13.95;;;;;;;11.93;100.00;102153.59;5024309;28;20026;-76
2023/06/05 04:10:07;;;;;;;27.20;14.30;;;;;;;12.03;100.00;102154.00;5029360;28;20210;-75
2023/06/05 04:12:35;;;;;;;24.40;14.88;;;;;;;12.10;100.00;102150.13;4999531;28;20034;-75
2023/06/05 04:15:02;;;;;;;21.17;13.52;;;;;;;12.25;100.00;102152.97;5038214;28;20030;-76
2023/06/05 04:17:28;;;;;;;19.70;12.98;;;;;;;12.35;100.00;102155.13;5032691;28;20049;-75
2023/06/05 04:19:53;;;;;;;23.70;13.77;;;;;;;12.14;100.00;102149.00;5043244;28;20026;-76
2023/06/05 04:22:19;;;;;;;21.50;13.35;;;;;;;11.87;100.00;102155.69;5026270;28;20482;-75
2023/06/05 04:24:44;;;;;;;20.92;13.48;;;;;;;12.46;100.00;102153.72;5034282;28;20038;-75
2023/06/05 04:27:11;;;;;;;18.75;13.20;;;;;;;12.90;100.00;102143.41;5041059;28;20084;-75
2023/06/05 04:29:37;;;;;;;20.45;13.23;;;;;;;12.63;100.00;102154.59;5031828;28;21413;-74
2023/06/05 04:32:02;;;;;;;22.23;12.98;;;;;;;13.02;100.00;102149.94;5025910;28;20116;-77
2023/06/05 04:34:28;;;;;;;23.95;13.27;;;;;;;13.24;100.00;102142.50;5039338;28;20227;-78
2023/06/05 04:36:54;;;;;;;21.77;13.73;;;;;;;13.29;100.00;102151.16;5026778;28;20051;-76
2023/06/05 04:39:20;;;;;;;23.80;13.07;;;;;;;13.50;100.00;102151.81;5036549;28;20075;-76
2023/06/05 04:41:46;;;;;;;22.75;13.20;;;;;;;13.06;100.00;102156.88;5046673;28;20166;-76
2023/06/05 04:44:17;;;;;;;21.33;12.10;;;;;;;12.76;100.00;102152.16;5043378;28;20557;-75
2023/06/05 04:46:45;;;;;;;22.45;13.20;;;;;;;13.34;100.00;102153.59;5050595;28;20032;-76
2023/06/05 04:49:12;;;;;;;17.80;12.50;;;;;;;13.57;100.00;102153.22;5047292;28;20102;-75
2023/06/05 04:51:39;;;;;;;19.63;12.13;;;;;;;13.69;100.00;102157.91;5055144;28;20025;-75
2023/06/05 04:54:05;;;;;;;20.58;13.02;;;;;;;14.00;100.00;102150.81;5030937;28;20064;-76
2023/06/05 04:56:34;;;;;;;19.50;12.50;;;;;;;13.81;100.00;102158.19;5048558;28;20037;-75
2023/06/05 04:59:03;;;;;;;21.85;13.25;;;;;;;13.88;100.00;102151.50;5063625;28;20044;-75
2023/06/05 05:01:30;;;;;;;20.05;12.60;;;;;;;13.97;100.00;102148.31;5043375;28;20879;-75
2023/06/05 05:03:56;;;;;;;18.38;11.65;;;;;;;14.33;100.00;102152.53;5072227;28;20036;-75
2023/06/05 05:06:21;;;;;;;19.23;12.30;;;;;;;14.44;100.00;102145.56;5051086;28;20069;-76
2023/06/05 05:08:48;;;;;;;23.60;12.85;;;;;;;14.29;100.00;102151.81;5048697;28;20110;-75
2023/06/05 05:11:15;;;;;;;18.50;11.82;;;;;;;14.84;100.00;102150.41;5050457;28;20430;-75
2023/06/05 05:13:42;;;;;;;19.13;12.70;;;;;;;14.52;100.00;102147.84;5037619;28;20036;-76
2023/06/05 05:16:09;;;;;;;18.85;12.40;;;;;;;14.94;100.00;102149.75;5048105;28;20723;-75
2023/06/05 05:18:36;;;;;;;22.70;12.02;;;;;;;15.31;100.00;102154.69;5052126;28;20048;-75
2023/06/05 05:21:04;;;;;;;17.52;11.27;;;;;;;15.82;95.09;102155.97;5051155;28;20119;-75
2023/06/05 05:23:32;;;;;;;17.58;10.75;;;;;;;15.27;99.76;102149.53;5047556;28;20032;-75
2023/06/05 05:25:58;;;;;;;19.70;11.95;;;;;;;14.60;100.00;102150.91;5064440;28;20036;-75
2023/06/05 05:28:24;;;;;;;18.25;11.77;;;;;;;15.02;100.00;102155.53;5035112;28;20045;-75
2023/06/05 05:30:51;;;;;;;17.98;12.60;;;;;;;15.34;100.00;102154.50;5056483;28;20040;-75
2023/06/05 05:33:17;;;;;;;20.63;11.48;;;;;;;15.50;99.46;102156.13;5036477;28;20039;-75
2023/06/05 05:35:44;;;;;;;21.55;11.77;;;;;;;15.58;97.47;102158.34;5043156;28;20035;-74
2023/06/05 05:38:10;;;;;;;17.20;10.75;;;;;;;14.97;100.00;102156.78;5057599;28;20048;-79
2023/06/05 05:40:37;;;;;;;19.13;11.65;;;;;;;15.02;100.00;102154.69;5053638;28;20040;-78
2023/06/05 05:43:02;;;;;;;18.80;11.57;;;;;;;15.53;98.43;102155.09;5039058;28;20099;-77
2023/06/05 05:45:28;;;;;;;17.15;11.43;;;;;;;14.41;100.00;102166.38;5057500;28;20033;-72
2023/06/05 05:47:54;;;;;;;17.30;10.32;;;;;;;15.62;99.37;102164.41;5065004;28;20114;-75
2023/06/05 05:50:20;;;;;;;18.25;11.38;;;;;;;15.49;100.00;102165.16;5057051;28;20103;-75
2023/06/05 05:52:47;;;;;;;21.48;11.13;;;;;;;15.41;100.00;102164.81;5017099;28;20057;-75
2023/06/05 05:55:13;;;;;;;14.45;10.90;;;;;;;15.72;100.00;102162.91;5069655;28;20039;-75
2023/06/05 05:57:41;;;;;;;16.33;11.57;;;;;;;15.64;100.00;102165.19;5031428;28;20087;-76
2023/06/05 06:00:12;;;;;;;19.63;12.05;;;;;;;14.37;100.00;102164.81;5037289;28;20688;-75
2023/06/05 06:02:42;;;;;;;23.92;11.98;;;;;;;14.34;100.00;102165.84;5049102;28;20047;-75
2023/06/05 06:05:12;;;;;;;20.38;11.43;;;;;;;14.91;100.00;102170.56;5037660;28;20158;-75
2023/06/05 06:07:42;;;;;;;18.80;11.70;;;;;;;14.93;100.00;102172.22;5067110;28;20029;-75
2023/06/05 06:10:12;;;;;;;19.48;12.48;;;;;;;14.80;100.00;102170.34;5029649;28;20056;-75
2023/06/05 06:12:41;;;;;;;13.45;11.68;;;;;;;15.02;100.00;102171.66;5055180;28;20061;-77
2023/06/05 06:15:11;;;;;;;17.23;12.50;;;;;;;14.58;100.00;102179.69;5062869;28;20140;-76
2023/06/05 06:17:38;;;;;;;17.40;12.75;;;;;;;14.75;100.00;102173.31;5059899;28;20051;-76
2023/06/05 06:20:12;;;;;;;18.65;12.43;;;;;;;14.77;100.00;102177.66;5047076;28;20033;-76
2023/06/05 06:22:41;;;;;;;21.95;12.20;;;;;;;15.11;100.00;102178.31;5045130;28;21164;-75
2023/06/05 06:25:17;;;;;;;15.40;11.70;;;;;;;15.11;100.00;102180.09;5035698;28;20685;-80
2023/06/05 06:27:45;;;;;;;18.52;13.02;;;;;;;15.71;100.00;102177.28;5071875;28;20038;-79
2023/06/05 06:30:13;;;;;;;16.95;12.43;;;;;;;15.18;100.00;102184.16;5065527;28;20041;-78
2023/06/05 06:32:42;;;;;;;20.38;13.02;;;;;;;15.14;100.00;102179.94;5058620;28;20105;-79
2023/06/05 06:35:16;;;;;;;17.33;11.80;;;;;;;15.88;100.00;102185.16;5058999;28;20133;-79
2023/06/05 06:37:43;;;;;;;18.38;11.20;;;;;;;15.47;100.00;102185.06;5076842;28;20095;-81
2023/06/05 06:40:11;;;;;;;19.02;12.07;;;;;;;14.98;100.00;102183.56;5077805;28;20067;-77
2023/06/05 06:42:39;;;;;;;19.20;12.50;;;;;;;15.14;100.00;102180.78;5064980;28;20043;-76
2023/06/05 06:45:29;;;;;;;17.38;12.70;;;;;;;15.62;100.00;102177.84;5045429;28;20049;-77
2023/06/05 06:47:55;;;;;;;22.63;13.57;;;;;;;15.33;100.00;102180.53;5038836;28;20706;-76
2023/06/05 06:50:21;;;;;;;19.20;12.23;;;;;;;15.24;100.00;102194.53;5060527;28;20029;-76
2023/06/05 06:52:47;;;;;;;18.55;12.18;;;;;;;15.82;100.00;102182.84;5035188;28;20039;-75
2023/06/05 06:55:13;;;;;;;16.98;12.35;;;;;;;15.63;100.00;102183.16;5060777;28;20037;-77
2023/06/05 06:57:39;;;;;;;21.88;13.30;;;;;;;15.88;100.00;102187.84;5063219;28;20055;-76
2023/06/05 07:00:10;;;;;;;18.88;12.45;;;;;;;15.52;100.00;102185.63;5064457;28;20036;-77
2023/06/05 07:02:37;;;;;;;24.15;13.05;;;;;;;15.20;100.00;102184.91;5062033;28;20033;-78
2023/06/05 07:05:04;;;;;;;16.95;12.63;;;;;;;15.67;100.00;102189.22;5065172;28;20072;-77
2023/06/05 07:07:30;;;;;;;21.45;12.75;;;;;;;15.66;100.00;102187.47;5071406;28;20068;-78
2023/06/05 07:09:57;;;;;;;18.05;12.38;;;;;;;15.35;100.00;102183.09;5058668;28;20119;-78
2023/06/05 07:12:23;;;;;;;18.25;12.80;;;;;;;15.60;100.00;102187.81;5053058;28;20032;-78
2023/06/05 07:14:54;;;;;;;21.08;12.85;;;;;;;15.85;100.00;102192.53;5070148;28;20025;-79
2023/06/05 07:17:22;;;;;;;22.80;12.90;;;;;;;16.15;100.00;102190.56;5057120;28;20119;-78
2023/06/05 07:19:48;;;;;;;20.02;12.05;;;;;;;16.78;96.34;102192.66;5059144;28;20080;-77
2023/06/05 07:22:15;;;;;;;21.20;13.57;;;;;;;16.75;100.00;102189.31;5038301;28;20181;-79
2023/06/05 07:24:42;;;;;;;18.85;13.48;;;;;;;16.30;100.00;102189.56;5077497;28;20032;-78
2023/06/05 07:27:11;;;;;;;23.08;13.05;;;;;;;17.07;99.44;102171.81;5049110;28;20037;-79
2023/06/05 07:29:37;;;;;;;21.42;13.65;;;;;;;16.35;94.62;102180.31;5051491;28;20033;-77
2023/06/05 07:32:06;;;;;;;21.38;12.25;;;;;;;16.65;99.00;102190.88;5072194;28;20418;-78
2023/06/05 07:34:34;;;;;;;22.13;13.57;;;;;;;16.79;99.67;102188.13;5036292;28;20121;-80
2023/06/05 07:37:01;;;;;;;20.17;12.52;;;;;;;16.56;93.56;102195.03;5055266;28;20059;-79
2023/06/05 07:39:30;;;;;;;17.88;11.82;;;;;;;16.73;96.86;102193.94;5040648;28;20394;-79
2023/06/05 07:41:56;;;;;;;21.05;12.18;;;;;;;17.08;95.64;102183.44;5069579;28;20047;-78
2023/06/05 07:44:22;;;;;;;19.67;12.45;;;;;;;17.60;92.40;102182.47;5067587;28;20102;-78
2023/06/05 07:46:49;;;;;;;20.50;12.80;;;;;;;17.80;92.74;102190.00;5069783;28;20033;-77
2023/06/05 07:49:16;;;;;;;23.88;13.48;;;;;;;17.45;93.63;102184.41;5062702;28;20088;-78
2023/06/05 07:51:43;;;;;;;20.13;13.00;;;;;;;17.28;89.36;102182.06;5063959;28;20039;-79
2023/06/05 07:54:11;;;;;;;20.55;12.02;;;;;;;17.66;88.70;102187.41;5052173;28;20033;-77
2023/06/05 07:56:38;;;;;;;17.10;11.38;;;;;;;17.46;96.16;102177.19;5075412;28;20050;-80
2023/06/05 07:59:14;;;;;;;19.80;12.43;;;;;;;17.17;92.55;102190.00;5053089;28;20051;-78
2023/06/05 08:01:45;;;;;;;21.27;12.65;;;;;;;17.78;95.97;102178.47;5053560;28;20037;-77
2023/06/05 08:04:11;;;;;;;19.15;12.95;;;;;;;17.56;88.35;102170.16;5053325;28;20033;-77
2023/06/05 08:06:41;;;;;;;19.90;12.50;;;;;;;17.48;89.18;102170.72;5071761;28;20028;-77
2023/06/05 08:09:12;;;;;;;21.92;11.95;;;;;;;17.18;91.18;102172.88;5053275;28;20115;-77
2023/06/05 08:11:44;;;;;;;17.27;12.05;;;;;;;17.54;88.66;102167.56;5056645;28;20073;-77
2023/06/05 08:14:11;;;;;;;19.48;12.18;;;;;;;17.43;90.24;102164.78;5063194;28;20028;-77
2023/06/05 08:16:37;;;;;;;19.90;13.07;;;;;;;17.47;92.18;102170.81;5069389;28;20090;-78
2023/06/05 08:19:03;;;;;;;22.13;13.25;;;;;;;17.91;91.89;102164.06;5052243;28;20806;-76
2023/06/05 08:21:30;;;;;;;20.98;12.57;;;;;;;17.91;88.40;102166.78;5041897;28;20048;-77
2023/06/05 08:23:55;;;;;;;21.98;12.02;;;;;;;18.49;89.54;102159.75;5040350;28;20063;-77
2023/06/05 08:26:21;;;;;;;16.00;11.05;;;;;;;18.38;93.02;102156.03;5066400;28;20142;-77
2023/06/05 08:28:49;;;;;;;22.77;12.88;;;;;;;18.18;90.18;102162.06;5050739;28;20904;-76
2023/06/05 08:31:16;;;;;;;19.67;13.60;;;;;;;18.09;90.45;102154.63;5040139;28;20071;-76
2023/06/05 08:33:45;;;;;;;18.83;11.93;;;;;;;17.88;90.02;102158.91;5075760;28;20115;-78
2023/06/05 08:36:11;;;;;;;16.27;12.40;;;;;;;18.93;87.77;102152.81;5076691;28;20033;-75
2023/06/05 08:38:46;;;;;;;19.45;12.18;;;;;;;18.24;90.09;102152.63;5055173;28;20175;-78
2023/06/05 08:41:17;;;;;;;17.85;11.80;;;;;;;18.27;89.16;102153.28;5069966;28;20035;-78
2023/06/05 08:43:46;;;;;;;18.67;12.30;;;;;;;18.22;88.12;102154.56;5060324;28;20033;-77
2023/06/05 08:46:13;;;;;;;18.98;12.05;;;;;;;18.75;90.57;102145.13;5058773;28;20043;-78
2023/06/05 08:48:47;;;;;;;16.65;11.57;;;;;;;18.18;88.46;102150.41;5050330;28;20590;-77
2023/06/05 08:51:15;;;;;;;17.77;11.48;;;;;;;18.76;88.22;102138.75;5084099;28;20033;-76
2023/06/05 08:54:12;;;;;;;19.02;11.55;;;;;;;18.60;86.46;102146.28;5078842;28;20036;-77
2023/06/05 08:56:42;;;;;;;16.83;11.75;;;;;;;18.50;86.11;102143.41;5055891;28;20034;-79
2023/06/05 08:59:14;;;;;;;18.90;11.52;;;;;;;19.13;87.06;102144.84;5069776;28;20097;-74
2023/06/05 09:01:40;;;;;;;19.02;10.18;;;;;;;18.95;83.96;102145.44;5052457;28;20029;-76
2023/06/05 09:04:07;;;;;;;17.33;11.35;;;;;;;19.09;83.95;102143.38;5076399;28;20123;-75
2023/06/05 09:06:33;;;;;;;15.57;10.05;;;;;;;19.07;82.59;102136.34;5054890;28;20048;-75
2023/06/05 09:09:01;;;;;;;18.23;11.43;;;;;;;19.29;82.72;102128.28;5056035;28;20099;-73
2023/06/05 09:11:31;;;;;;;17.00;11.77;;;;;;;18.53;81.67;102135.09;5050168;28;20114;-73
2023/06/05 09:13:58;;;;;;;24.20;11.48;;;;;;;19.02;80.67;102134.00;5066034;28;20084;-75
2023/06/05 09:16:39;;;;;;;18.83;11.73;;;;;;;19.46;82.70;102128.75;5048143;28;20076;-74
2023/06/05 09:19:05;;;;;;;15.82;11.80;;;;;;;19.21;83.73;102130.72;5028159;28;20110;-73
2023/06/05 09:21:32;;;;;;;23.05;11.65;;;;;;;19.00;81.68;102124.31;5030234;28;20061;-75
2023/06/05 09:24:19;;;;;;;14.52;10.65;;;;;;;18.99;81.16;102126.16;5049190;28;20472;-73
2023/06/05 09:26:58;;;;;;;18.40;11.63;;;;;;;18.91;82.32;102127.72;5068312;28;20130;-74
2023/06/05 09:29:45;;;;;;;18.27;10.70;;;;;;;19.03;79.84;102122.22;5064380;28;20671;-73
2023/06/05 09:32:20;;;;;;;17.25;10.73;;;;;;;19.44;83.45;102120.78;5054940;28;20029;-73
2023/06/05 09:34:59;;;;;;;15.55;10.45;;;;;;;18.83;81.57;102126.50;5067015;28;20024;-74
2023/06/05 09:37:34;;;;;;;19.50;10.48;;;;;;;19.34;77.42;102115.25;5066206;28;20056;-74
2023/06/05 09:39:59;;;;;;;17.60;11.20;;;;;;;19.69;84.53;102118.81;5062839;28;20533;-74
2023/06/05 09:42:32;;;;;;;18.13;10.23;;;;;;;19.95;77.38;102112.13;5050708;28;20110;-74
2023/06/05 09:44:59;;;;;;;14.77;10.60;;;;;;;19.49;78.11;102128.53;5068978;28;20104;-76
2023/06/05 09:47:25;;;;;;;15.63;10.63;;;;;;;19.63;77.59;102121.03;5054092;28;20072;-73
2023/06/05 09:49:51;;;;;;;14.48;10.30;;;;;;;19.47;75.83;102125.06;5057517;28;20036;-73
2023/06/05 09:52:17;;;;;;;16.38;11.32;;;;;;;19.84;75.78;102115.72;5061286;28;20939;-74
2023/06/05 09:54:44;;;;;;;14.50;10.15;;;;;;;19.60;77.13;102120.41;5045056;28;20025;-74
2023/06/05 09:57:12;;;;;;;17.40;10.95;;;;;;;19.44;77.46;102125.31;5034137;28;20048;-74
2023/06/05 09:59:54;;;;;;;18.92;10.55;;;;;;;19.90;77.73;102117.91;5050206;28;20104;-73
2023/06/05 10:02:20;;;;;;;;;;;;;;;19.91;77.22;102118.75;5067838;28;20052;-72
2023/06/05 10:04:49;;;;;;;16.83;10.10;;;;;;;20.12;78.96;102118.81;5061606;28;19921;-73
2023/06/05 10:07:15;;;;;;;16.80;10.13;;;;;;;20.16;74.59;102110.31;5052150;28;20036;-74
2023/06/05 10:09:47;;;;;;;16.05;10.82;;;;;;;20.35;74.53;102106.94;5064413;28;20044;-76
2023/06/05 10:12:13;;;;;;;16.50;9.65;;;;;;;20.09;77.52;102114.53;5060019;28;20067;-73
2023/06/05 10:14:42;;;;;;;15.00;10.85;;;;;;;20.37;77.95;102107.63;5067828;28;20033;-76
2023/06/05 10:17:12;;;;;;;18.00;11.00;;;;;;;20.54;79.90;102102.69;5060846;28;20029;-76
2023/06/05 10:19:42;;;;;;;15.38;10.27;;;;;;;20.81;79.82;102097.59;5070637;28;20038;-74
2023/06/05 10:22:11;;;;;;;18.42;10.60;;;;;;;21.19;75.10;102090.66;5048332;28;20048;-73
2023/06/05 10:24:52;;;;;;;15.23;9.85;;;;;;;20.84;73.86;102097.34;5042922;28;20087;-75
2023/06/05 10:27:57;;;;;;;17.83;10.07;;;;;;;20.31;71.30;102101.91;5051874;28;20043;-74
2023/06/05 10:30:50;;;;;;;19.75;10.25;;;;;;;20.56;72.94;102087.16;4972263;28;20054;-74
2023/06/05 10:33:34;;;;;;;22.98;10.73;;;;;;;20.89;73.04;102091.50;4970439;28;20954;-74
2023/06/05 10:36:41;;;;;;;17.98;10.18;;;;;;;20.84;74.68;102083.78;4988393;28;20383;-74
2023/06/05 10:39:19;;;;;;;12.77;9.13;;;;;;;21.22;78.07;102076.81;4947754;28;20107;-74
2023/06/05 10:41:45;;;;;;;15.10;9.10;;;;;;;20.99;72.90;102075.28;4948393;28;20054;-74
2023/06/05 10:44:13;;;;;;;14.02;9.32;;;;;;;21.20;74.91;102073.41;4948164;28;20066;-73
2023/06/05 10:46:42;;;;;;;17.08;9.18;;;;;;;21.58;70.73;102077.25;4930904;28;20055;-76
2023/06/05 10:49:14;;;;;;;14.95;9.20;;;;;;;21.49;68.25;102080.78;4949539;28;20046;-75
2023/06/05 10:51:50;;;;;;;15.77;9.93;;;;;;;21.74;68.59;102080.31;4949408;28;20043;-75
2023/06/05 10:54:24;;;;;;;15.10;9.00;;;;;;;21.06;72.84;102071.91;4932978;28;20066;-76
2023/06/05 10:56:59;;;;;;;18.23;9.13;;;;;;;21.14;71.08;102079.38;4949576;28;20278;-75
2023/06/05 10:59:30;;;;;;;19.33;9.65;;;;;;;21.09;73.43;102065.34;4949965;28;20067;-75
2023/06/05 11:02:06;;;;;;;16.23;10.57;;;;;;;21.37;76.34;102064.63;4950058;28;20626;-75
2023/06/05 11:04:46;;;;;;;19.60;10.50;;;;;;;21.90;73.90;102058.03;4933420;28;20031;-76
2023/06/05 11:07:25;;;;;;;12.80;9.43;;;;;;;21.70;70.74;102060.72;5003270;28;21154;-76
2023/06/05 11:10:06;;;;;;;13.40;9.05;;;;;;;21.73;68.01;102059.56;5000193;28;20057;-76
2023/06/05 11:12:35;;;;;;;16.20;9.02;;;;;;;21.56;65.87;102065.69;4971130;28;20038;-76
2023/06/05 11:15:07;;;;;;;16.30;9.57;;;;;;;21.64;69.30;102065.88;5006154;28;20053;-76
2023/06/05 11:17:39;;;;;;;15.70;10.05;;;;;;;22.00;68.47;102067.06;5050634;28;20143;-75